SWR36C LSZH-LEMG
Flight info
| Callsign | SWR36C |
|---|---|
| Flight time | 2h 21m |
| Altitude | 33000 |
| Route | VEBIT T50 ROTOS Z669 ULMES DCT VADAR DCT NINTU/N0463F410 DCT MEBAK DCT REPSI DCT LERGA DCT MINSO DCT NARAK DCT AGN DCT MAQAB DCT TIVLI DCT ELSAP DCT ZAR DCT EXEMU DCT PISUS DCT EDIMU DCT ADUXO DCT NUSGO DCT OBIBO DCT NASOS DCT ANZAN DCT BLN |
| Aircraft | A343/H-SDE2E3FGHIJ4J5M1RWXY/LB1D1 |
Departure
| Time | 2026-05-04 12:48 |
|---|---|
| Airport | Zürich Airport (LSZH) |
Arrival
| Time | 2026-05-04 15:09 |
|---|---|
| Airport | Málaga-Costa del Sol Airport (LEMG) |
| Time | Latitude | Longitude | Altitude | Speed | Heading |
|---|---|---|---|---|---|
| 2026-05-04 12:34 | 47.44845 | 8.56134 | 1412 ft | 0 kts | 65° |
| 2026-05-04 12:37 | 47.44844 | 8.56131 | 1412 ft | 2 kts | 65° |
| 2026-05-04 12:38 | 47.44834 | 8.56096 | 1405 ft | 4 kts | 67° |
| 2026-05-04 12:38 | 47.44821 | 8.56063 | 1412 ft | 4 kts | 38° |
| 2026-05-04 12:38 | 47.44801 | 8.56047 | 1412 ft | 4 kts | 14° |
| 2026-05-04 12:38 | 47.44776 | 8.56047 | 1412 ft | 4 kts | 337° |
| 2026-05-04 12:39 | 47.44753 | 8.56064 | 1411 ft | 2 kts | 334° |
| 2026-05-04 12:39 | 47.44752 | 8.56065 | 1411 ft | 1 kts | 335° |
| 2026-05-04 12:40 | 47.44781 | 8.56045 | 1411 ft | 9 kts | 335° |
| 2026-05-04 12:41 | 47.44850 | 8.55997 | 1411 ft | 12 kts | 335° |
| 2026-05-04 12:41 | 47.44919 | 8.55946 | 1412 ft | 10 kts | 322° |
| 2026-05-04 12:41 | 47.44946 | 8.55852 | 1414 ft | 12 kts | 281° |
| 2026-05-04 12:41 | 47.44967 | 8.55700 | 1411 ft | 11 kts | 298° |
| 2026-05-04 12:42 | 47.45038 | 8.55623 | 1412 ft | 18 kts | 330° |
| 2026-05-04 12:42 | 47.45182 | 8.55521 | 1413 ft | 25 kts | 335° |
| 2026-05-04 12:42 | 47.45339 | 8.55412 | 1414 ft | 25 kts | 335° |
| 2026-05-04 12:42 | 47.45499 | 8.55303 | 1409 ft | 26 kts | 335° |
| 2026-05-04 12:43 | 47.45663 | 8.55189 | 1407 ft | 27 kts | 334° |
| 2026-05-04 12:43 | 47.45833 | 8.55069 | 1406 ft | 27 kts | 334° |
| 2026-05-04 12:43 | 47.46004 | 8.54953 | 1403 ft | 28 kts | 336° |
| 2026-05-04 12:43 | 47.46182 | 8.54829 | 1396 ft | 29 kts | 336° |
| 2026-05-04 12:44 | 47.46365 | 8.54703 | 1385 ft | 29 kts | 335° |
| 2026-05-04 12:44 | 47.46545 | 8.54580 | 1401 ft | 28 kts | 335° |
| 2026-05-04 12:44 | 47.46720 | 8.54459 | 1385 ft | 28 kts | 338° |
| 2026-05-04 12:44 | 47.46903 | 8.54349 | 1383 ft | 28 kts | 335° |
| 2026-05-04 12:45 | 47.47074 | 8.54231 | 1387 ft | 27 kts | 335° |
| 2026-05-04 12:45 | 47.47237 | 8.54117 | 1400 ft | 25 kts | 335° |
| 2026-05-04 12:45 | 47.47394 | 8.54010 | 1404 ft | 24 kts | 335° |
| 2026-05-04 12:45 | 47.47538 | 8.53909 | 1409 ft | 22 kts | 334° |
| 2026-05-04 12:46 | 47.47608 | 8.53768 | 1409 ft | 14 kts | 269° |
| 2026-05-04 12:46 | 47.47575 | 8.53642 | 1407 ft | 13 kts | 244° |
| 2026-05-04 12:46 | 47.47538 | 8.53619 | 1409 ft | 4 kts | 163° |
| 2026-05-04 12:46 | 47.47529 | 8.53624 | 1412 ft | 0 kts | 158° |
| 2026-05-04 12:47 | 47.47504 | 8.53641 | 1408 ft | 19 kts | 156° |
| 2026-05-04 12:47 | 47.47176 | 8.53867 | 1385 ft | 84 kts | 155° |
| 2026-05-04 12:47 | 47.46474 | 8.54349 | 1383 ft | 136 kts | 155° |
| 2026-05-04 12:47 | 47.45492 | 8.55015 | 1477 ft | 168 kts | 153° |
| 2026-05-04 12:48 | 47.44409 | 8.55719 | 2124 ft | 172 kts | 154° |
| 2026-05-04 12:48 | 47.43361 | 8.56597 | 2708 ft | 178 kts | 130° |
| 2026-05-04 12:48 | 47.43030 | 8.58304 | 3328 ft | 177 kts | 76° |
| 2026-05-04 12:48 | 47.43721 | 8.59697 | 4106 ft | 171 kts | 27° |
| 2026-05-04 12:49 | 47.44905 | 8.59801 | 4738 ft | 181 kts | 344° |
| 2026-05-04 12:49 | 47.46107 | 8.59082 | 5305 ft | 193 kts | 335° |
| 2026-05-04 12:49 | 47.47242 | 8.57944 | 5894 ft | 201 kts | 311° |
| 2026-05-04 12:49 | 47.47715 | 8.56054 | 6515 ft | 201 kts | 264° |
| 2026-05-04 12:50 | 47.47173 | 8.54094 | 6905 ft | 220 kts | 228° |
| 2026-05-04 12:50 | 47.45932 | 8.52670 | 7493 ft | 235 kts | 214° |
| 2026-05-04 12:50 | 47.44883 | 8.50672 | 8018 ft | 259 kts | 242° |
| 2026-05-04 12:50 | 47.44115 | 8.48233 | 8788 ft | 270 kts | 243° |
| 2026-05-04 12:51 | 47.43295 | 8.45707 | 9676 ft | 276 kts | 242° |
| 2026-05-04 12:51 | 47.42408 | 8.43160 | 10407 ft | 285 kts | 241° |
| 2026-05-04 12:51 | 47.41438 | 8.40494 | 10841 ft | 304 kts | 240° |
| 2026-05-04 12:51 | 47.40385 | 8.37678 | 11216 ft | 323 kts | 240° |
| 2026-05-04 12:52 | 47.39268 | 8.34728 | 11794 ft | 333 kts | 240° |
| 2026-05-04 12:52 | 47.38125 | 8.31727 | 12579 ft | 338 kts | 239° |
| 2026-05-04 12:52 | 47.36972 | 8.28707 | 13422 ft | 339 kts | 240° |
| 2026-05-04 12:52 | 47.35804 | 8.25656 | 14182 ft | 343 kts | 239° |
| 2026-05-04 12:53 | 47.34635 | 8.22566 | 14859 ft | 347 kts | 241° |
| 2026-05-04 12:53 | 47.33512 | 8.19399 | 15632 ft | 351 kts | 241° |
| 2026-05-04 12:53 | 47.32384 | 8.16184 | 16326 ft | 355 kts | 241° |
| 2026-05-04 12:53 | 47.31241 | 8.12937 | 17069 ft | 358 kts | 241° |
| 2026-05-04 12:54 | 47.30477 | 8.10769 | 17525 ft | 361 kts | 240° |
| 2026-05-04 12:54 | 47.29307 | 8.07468 | 18191 ft | 366 kts | 240° |
| 2026-05-04 12:54 | 47.28119 | 8.04128 | 18794 ft | 370 kts | 240° |
| 2026-05-04 12:54 | 47.26942 | 8.00741 | 19392 ft | 373 kts | 242° |
| 2026-05-04 12:55 | 47.25861 | 7.97251 | 20043 ft | 376 kts | 244° |
| 2026-05-04 12:55 | 47.24841 | 7.93692 | 20656 ft | 379 kts | 245° |
| 2026-05-04 12:55 | 47.23845 | 7.90081 | 21256 ft | 382 kts | 245° |
| 2026-05-04 12:55 | 47.22851 | 7.86440 | 21844 ft | 385 kts | 245° |
| 2026-05-04 12:56 | 47.21847 | 7.82779 | 22449 ft | 388 kts | 245° |
| 2026-05-04 12:56 | 47.20827 | 7.79090 | 23019 ft | 390 kts | 245° |
| 2026-05-04 12:56 | 47.19766 | 7.75403 | 23574 ft | 392 kts | 242° |
| 2026-05-04 12:56 | 47.18443 | 7.71892 | 24012 ft | 393 kts | 234° |
| 2026-05-04 12:57 | 47.16875 | 7.68600 | 24489 ft | 394 kts | 232° |
| 2026-05-04 12:57 | 47.15218 | 7.65381 | 24935 ft | 396 kts | 230° |
| 2026-05-04 12:57 | 47.13511 | 7.62199 | 25362 ft | 398 kts | 229° |
| 2026-05-04 12:57 | 47.11774 | 7.59020 | 25816 ft | 401 kts | 229° |
| 2026-05-04 12:58 | 47.10019 | 7.55823 | 26240 ft | 403 kts | 229° |
| 2026-05-04 12:58 | 47.08260 | 7.52615 | 26690 ft | 404 kts | 229° |
| 2026-05-04 12:58 | 47.06497 | 7.49388 | 27114 ft | 407 kts | 229° |
| 2026-05-04 12:58 | 47.04728 | 7.46143 | 27565 ft | 408 kts | 229° |
| 2026-05-04 12:59 | 47.02951 | 7.42878 | 27985 ft | 410 kts | 229° |
| 2026-05-04 12:59 | 47.01171 | 7.39602 | 28399 ft | 412 kts | 229° |
| 2026-05-04 12:59 | 46.99378 | 7.36320 | 28846 ft | 413 kts | 229° |
| 2026-05-04 12:59 | 46.97575 | 7.33032 | 29248 ft | 415 kts | 229° |
| 2026-05-04 13:00 | 46.95762 | 7.29735 | 29616 ft | 417 kts | 229° |
| 2026-05-04 13:00 | 46.93945 | 7.26422 | 29931 ft | 420 kts | 229° |
| 2026-05-04 13:00 | 46.92105 | 7.23068 | 30135 ft | 424 kts | 229° |
| 2026-05-04 13:00 | 46.90254 | 7.19696 | 30472 ft | 426 kts | 229° |
| 2026-05-04 13:01 | 46.88395 | 7.16313 | 30786 ft | 427 kts | 229° |
| 2026-05-04 13:01 | 46.86529 | 7.12918 | 31074 ft | 429 kts | 229° |
| 2026-05-04 13:01 | 46.84655 | 7.09515 | 31380 ft | 431 kts | 229° |
| 2026-05-04 13:01 | 46.82772 | 7.06098 | 31663 ft | 432 kts | 229° |
| 2026-05-04 13:02 | 46.80887 | 7.02683 | 32013 ft | 432 kts | 229° |
| 2026-05-04 13:02 | 46.79005 | 6.99278 | 32460 ft | 430 kts | 230° |
| 2026-05-04 13:02 | 46.77134 | 6.95895 | 32864 ft | 428 kts | 230° |
| 2026-05-04 13:02 | 46.75265 | 6.92523 | 33204 ft | 427 kts | 230° |
| 2026-05-04 13:03 | 46.73393 | 6.89152 | 33550 ft | 427 kts | 230° |
| 2026-05-04 13:03 | 46.71528 | 6.85794 | 33966 ft | 425 kts | 230° |
| 2026-05-04 13:03 | 46.69698 | 6.82503 | 34312 ft | 423 kts | 230° |
| 2026-05-04 13:03 | 46.67847 | 6.79177 | 34590 ft | 423 kts | 230° |
| 2026-05-04 13:04 | 46.66044 | 6.75794 | 34843 ft | 423 kts | 234° |
| 2026-05-04 13:04 | 46.64431 | 6.72207 | 35109 ft | 424 kts | 236° |
| 2026-05-04 13:04 | 46.62869 | 6.68569 | 35373 ft | 424 kts | 237° |
| 2026-05-04 13:04 | 46.61333 | 6.64913 | 35643 ft | 424 kts | 237° |
| 2026-05-04 13:05 | 46.59807 | 6.61246 | 35906 ft | 423 kts | 237° |
| 2026-05-04 13:05 | 46.58287 | 6.57584 | 36177 ft | 423 kts | 237° |
| 2026-05-04 13:05 | 46.56765 | 6.53924 | 36441 ft | 423 kts | 237° |
| 2026-05-04 13:05 | 46.55240 | 6.50268 | 36695 ft | 423 kts | 237° |
| 2026-05-04 13:06 | 46.53712 | 6.46619 | 36939 ft | 423 kts | 237° |
| 2026-05-04 13:06 | 46.52184 | 6.42979 | 37276 ft | 421 kts | 237° |
| 2026-05-04 13:06 | 46.50660 | 6.39358 | 37578 ft | 420 kts | 237° |
| 2026-05-04 13:06 | 46.49139 | 6.35747 | 37809 ft | 420 kts | 237° |
| 2026-05-04 13:07 | 46.47613 | 6.32131 | 38014 ft | 420 kts | 237° |
| 2026-05-04 13:07 | 46.46086 | 6.28518 | 38262 ft | 420 kts | 237° |
| 2026-05-04 13:07 | 46.44560 | 6.24911 | 38494 ft | 420 kts | 238° |
| 2026-05-04 13:07 | 46.43033 | 6.21306 | 38713 ft | 420 kts | 238° |
| 2026-05-04 13:08 | 46.41505 | 6.17702 | 38881 ft | 420 kts | 238° |
| 2026-05-04 13:08 | 46.39974 | 6.14098 | 39026 ft | 421 kts | 238° |
| 2026-05-04 13:08 | 46.38435 | 6.10479 | 39071 ft | 423 kts | 238° |
| 2026-05-04 13:09 | 46.35361 | 6.03259 | 39071 ft | 420 kts | 238° |
| 2026-05-04 13:09 | 46.32294 | 5.96080 | 39078 ft | 419 kts | 237° |
| 2026-05-04 13:10 | 46.29222 | 5.88910 | 39072 ft | 419 kts | 237° |
| 2026-05-04 13:10 | 46.26167 | 5.81797 | 39055 ft | 419 kts | 237° |
| 2026-05-04 13:11 | 46.23086 | 5.74639 | 39057 ft | 420 kts | 237° |
| 2026-05-04 13:11 | 46.19981 | 5.67445 | 39048 ft | 419 kts | 237° |
| 2026-05-04 13:12 | 46.16914 | 5.60354 | 39033 ft | 419 kts | 237° |
| 2026-05-04 13:12 | 46.13815 | 5.53235 | 39022 ft | 418 kts | 236° |
| 2026-05-04 13:13 | 46.10538 | 5.46324 | 39032 ft | 417 kts | 234° |
| 2026-05-04 13:13 | 46.07186 | 5.39493 | 39022 ft | 417 kts | 234° |
| 2026-05-04 13:14 | 46.03856 | 5.32655 | 39029 ft | 417 kts | 235° |
| 2026-05-04 13:14 | 46.00556 | 5.25831 | 39033 ft | 414 kts | 235° |
| 2026-05-04 13:15 | 45.97272 | 5.19037 | 39034 ft | 413 kts | 235° |
| 2026-05-04 13:15 | 45.93989 | 5.12260 | 39047 ft | 413 kts | 234° |
| 2026-05-04 13:16 | 45.90700 | 5.05492 | 39043 ft | 413 kts | 234° |
| 2026-05-04 13:16 | 45.87412 | 4.98741 | 39042 ft | 413 kts | 234° |
| 2026-05-04 13:17 | 45.84119 | 4.91997 | 39047 ft | 412 kts | 234° |
| 2026-05-04 13:17 | 45.80833 | 4.85283 | 39046 ft | 411 kts | 234° |
| 2026-05-04 13:18 | 45.77546 | 4.78585 | 39043 ft | 411 kts | 234° |
| 2026-05-04 13:18 | 45.74256 | 4.71897 | 39041 ft | 411 kts | 234° |
| 2026-05-04 13:19 | 45.70982 | 4.65254 | 39013 ft | 412 kts | 234° |
| 2026-05-04 13:19 | 45.67677 | 4.58559 | 39002 ft | 412 kts | 234° |
| 2026-05-04 13:20 | 45.64362 | 4.51866 | 39013 ft | 412 kts | 234° |
| 2026-05-04 13:20 | 45.61048 | 4.45188 | 39019 ft | 412 kts | 234° |
| 2026-05-04 13:21 | 45.57728 | 4.38512 | 39018 ft | 412 kts | 233° |
| 2026-05-04 13:21 | 45.54404 | 4.31845 | 39023 ft | 412 kts | 233° |
| 2026-05-04 13:22 | 45.51074 | 4.25181 | 39023 ft | 414 kts | 233° |
| 2026-05-04 13:22 | 45.47718 | 4.18487 | 39019 ft | 415 kts | 233° |
| 2026-05-04 13:23 | 45.44355 | 4.11798 | 39013 ft | 415 kts | 233° |
| 2026-05-04 13:23 | 45.40988 | 4.05117 | 39006 ft | 415 kts | 233° |
| 2026-05-04 13:24 | 45.37617 | 3.98442 | 39000 ft | 415 kts | 233° |
| 2026-05-04 13:24 | 45.34243 | 3.91776 | 38999 ft | 415 kts | 233° |
| 2026-05-04 13:25 | 45.29181 | 3.81804 | 39006 ft | 414 kts | 233° |
| 2026-05-04 13:25 | 45.25833 | 3.75226 | 39008 ft | 414 kts | 233° |
| 2026-05-04 13:26 | 45.22506 | 3.68562 | 38986 ft | 414 kts | 234° |
| 2026-05-04 13:26 | 45.19225 | 3.61855 | 38986 ft | 414 kts | 234° |
| 2026-05-04 13:27 | 45.15939 | 3.55159 | 38987 ft | 414 kts | 234° |
| 2026-05-04 13:27 | 45.12638 | 3.48479 | 38977 ft | 413 kts | 234° |
| 2026-05-04 13:28 | 45.09344 | 3.41840 | 38984 ft | 411 kts | 234° |
| 2026-05-04 13:28 | 45.06055 | 3.35228 | 38982 ft | 411 kts | 234° |
| 2026-05-04 13:29 | 45.02766 | 3.28632 | 38985 ft | 410 kts | 234° |
| 2026-05-04 13:29 | 44.99473 | 3.22040 | 38983 ft | 410 kts | 234° |
| 2026-05-04 13:30 | 44.96176 | 3.15455 | 38978 ft | 410 kts | 234° |
| 2026-05-04 13:30 | 44.92880 | 3.08886 | 38983 ft | 410 kts | 234° |
| 2026-05-04 13:31 | 44.89584 | 3.02335 | 38987 ft | 410 kts | 234° |
| 2026-05-04 13:31 | 44.86276 | 2.95773 | 38975 ft | 411 kts | 234° |
| 2026-05-04 13:32 | 44.82998 | 2.89162 | 38969 ft | 412 kts | 235° |
| 2026-05-04 13:32 | 44.79898 | 2.82379 | 38969 ft | 412 kts | 236° |
| 2026-05-04 13:33 | 44.76824 | 2.75577 | 38969 ft | 412 kts | 236° |
| 2026-05-04 13:33 | 44.73719 | 2.68802 | 38963 ft | 412 kts | 236° |
| 2026-05-04 13:34 | 44.70590 | 2.62044 | 38970 ft | 413 kts | 236° |
| 2026-05-04 13:34 | 44.67440 | 2.55271 | 38955 ft | 414 kts | 236° |
| 2026-05-04 13:35 | 44.62707 | 2.45115 | 38963 ft | 414 kts | 236° |
| 2026-05-04 13:36 | 44.59549 | 2.38356 | 38953 ft | 414 kts | 236° |
| 2026-05-04 13:36 | 44.56389 | 2.31606 | 38942 ft | 414 kts | 236° |
| 2026-05-04 13:37 | 44.53223 | 2.24866 | 38942 ft | 414 kts | 236° |
| 2026-05-04 13:37 | 44.50073 | 2.18175 | 38940 ft | 415 kts | 236° |
| 2026-05-04 13:38 | 44.46894 | 2.11436 | 38935 ft | 415 kts | 236° |
| 2026-05-04 13:38 | 44.43709 | 2.04698 | 38931 ft | 415 kts | 235° |
| 2026-05-04 13:39 | 44.40520 | 1.97970 | 38934 ft | 415 kts | 235° |
| 2026-05-04 13:39 | 44.37326 | 1.91245 | 38924 ft | 415 kts | 235° |
| 2026-05-04 13:40 | 44.34120 | 1.84512 | 38926 ft | 418 kts | 235° |
| 2026-05-04 13:40 | 44.30894 | 1.77751 | 38920 ft | 419 kts | 235° |
| 2026-05-04 13:41 | 44.27678 | 1.70968 | 38918 ft | 419 kts | 236° |
| 2026-05-04 13:41 | 44.24544 | 1.64116 | 38914 ft | 419 kts | 237° |
| 2026-05-04 13:42 | 44.19846 | 1.53834 | 38912 ft | 419 kts | 236° |
| 2026-05-04 13:42 | 44.16692 | 1.46992 | 38910 ft | 421 kts | 236° |
| 2026-05-04 13:43 | 44.14052 | 1.41288 | 38909 ft | 422 kts | 236° |
| 2026-05-04 13:43 | 44.10864 | 1.34418 | 38907 ft | 422 kts | 236° |
| 2026-05-04 13:44 | 44.07675 | 1.27557 | 38908 ft | 422 kts | 236° |
| 2026-05-04 13:44 | 44.04481 | 1.20703 | 38914 ft | 422 kts | 236° |
| 2026-05-04 13:45 | 44.01282 | 1.13853 | 38926 ft | 422 kts | 236° |
| 2026-05-04 13:45 | 43.98084 | 1.07024 | 38911 ft | 422 kts | 236° |
| 2026-05-04 13:46 | 43.94881 | 1.00199 | 38916 ft | 422 kts | 236° |
| 2026-05-04 13:46 | 43.91675 | 0.93382 | 38916 ft | 422 kts | 236° |
| 2026-05-04 13:47 | 43.88204 | 0.86841 | 38923 ft | 421 kts | 227° |
| 2026-05-04 13:47 | 43.83972 | 0.81222 | 38923 ft | 422 kts | 223° |
| 2026-05-04 13:48 | 43.79629 | 0.75858 | 38947 ft | 420 kts | 222° |
| 2026-05-04 13:48 | 43.75253 | 0.70517 | 38930 ft | 420 kts | 222° |
| 2026-05-04 13:49 | 43.70880 | 0.65163 | 38934 ft | 420 kts | 222° |
| 2026-05-04 13:49 | 43.66515 | 0.59805 | 38939 ft | 420 kts | 222° |
| 2026-05-04 13:50 | 43.62150 | 0.54452 | 38936 ft | 420 kts | 222° |
| 2026-05-04 13:50 | 43.57785 | 0.49110 | 38940 ft | 419 kts | 222° |
| 2026-05-04 13:51 | 43.53425 | 0.43787 | 38949 ft | 419 kts | 222° |
| 2026-05-04 13:51 | 43.49060 | 0.38469 | 38949 ft | 419 kts | 222° |
| 2026-05-04 13:52 | 43.42465 | 0.30452 | 38955 ft | 424 kts | 222° |
| 2026-05-04 13:53 | 43.38043 | 0.25085 | 38958 ft | 424 kts | 222° |
| 2026-05-04 13:53 | 43.33613 | 0.19729 | 38963 ft | 424 kts | 222° |
| 2026-05-04 13:54 | 43.26965 | 0.11716 | 38963 ft | 424 kts | 222° |
| 2026-05-04 13:55 | 43.20318 | 0.03723 | 38961 ft | 422 kts | 221° |
| 2026-05-04 13:55 | 43.13707 | -0.04203 | 38967 ft | 422 kts | 222° |
| 2026-05-04 13:56 | 43.09303 | -0.09470 | 38965 ft | 424 kts | 221° |
| 2026-05-04 13:57 | 43.02631 | -0.17430 | 38967 ft | 424 kts | 221° |
| 2026-05-04 13:58 | 42.93764 | -0.27971 | 38961 ft | 421 kts | 221° |
| 2026-05-04 13:58 | 42.87128 | -0.35831 | 38953 ft | 421 kts | 221° |
| 2026-05-04 13:59 | 42.82678 | -0.41038 | 38949 ft | 422 kts | 218° |
| 2026-05-04 13:59 | 42.77636 | -0.45109 | 38943 ft | 423 kts | 206° |
| 2026-05-04 14:00 | 42.74925 | -0.46676 | 38941 ft | 424 kts | 204° |
| 2026-05-04 14:00 | 42.66647 | -0.51025 | 38936 ft | 425 kts | 203° |
| 2026-05-04 14:01 | 42.61124 | -0.53876 | 38921 ft | 425 kts | 203° |
| 2026-05-04 14:02 | 42.52857 | -0.58189 | 38933 ft | 424 kts | 203° |
| 2026-05-04 14:02 | 42.47356 | -0.61068 | 38933 ft | 424 kts | 204° |
| 2026-05-04 14:03 | 42.41850 | -0.63945 | 38922 ft | 424 kts | 203° |
| 2026-05-04 14:03 | 42.36342 | -0.66813 | 38918 ft | 423 kts | 204° |
| 2026-05-04 14:04 | 42.28105 | -0.71091 | 38922 ft | 423 kts | 204° |
| 2026-05-04 14:04 | 42.22615 | -0.73937 | 38922 ft | 423 kts | 204° |
| 2026-05-04 14:05 | 42.14391 | -0.78190 | 38924 ft | 421 kts | 204° |
| 2026-05-04 14:06 | 42.08965 | -0.80989 | 38919 ft | 420 kts | 204° |
| 2026-05-04 14:06 | 42.03469 | -0.83820 | 38919 ft | 420 kts | 204° |
| 2026-05-04 14:07 | 41.98043 | -0.86614 | 38901 ft | 421 kts | 204° |
| 2026-05-04 14:07 | 41.92585 | -0.89413 | 38915 ft | 419 kts | 204° |
| 2026-05-04 14:08 | 41.87149 | -0.92193 | 38912 ft | 418 kts | 204° |
| 2026-05-04 14:08 | 41.81676 | -0.94989 | 38915 ft | 418 kts | 204° |
| 2026-05-04 14:09 | 41.73552 | -0.99135 | 38910 ft | 419 kts | 204° |
| 2026-05-04 14:10 | 41.65481 | -1.03616 | 38913 ft | 416 kts | 213° |
| 2026-05-04 14:10 | 41.60617 | -1.07776 | 38910 ft | 415 kts | 216° |
| 2026-05-04 14:11 | 41.55860 | -1.12147 | 38912 ft | 415 kts | 217° |
| 2026-05-04 14:11 | 41.48729 | -1.18743 | 38916 ft | 419 kts | 217° |
| 2026-05-04 14:12 | 41.43908 | -1.23164 | 38920 ft | 421 kts | 217° |
| 2026-05-04 14:13 | 41.36649 | -1.29784 | 38925 ft | 421 kts | 217° |
| 2026-05-04 14:13 | 41.31812 | -1.34186 | 38923 ft | 421 kts | 217° |
| 2026-05-04 14:14 | 41.26988 | -1.38568 | 38929 ft | 419 kts | 217° |
| 2026-05-04 14:14 | 41.19776 | -1.45122 | 38932 ft | 419 kts | 217° |
| 2026-05-04 14:15 | 41.10142 | -1.53831 | 38942 ft | 419 kts | 217° |
| 2026-05-04 14:16 | 41.02917 | -1.60346 | 38941 ft | 419 kts | 217° |
| 2026-05-04 14:17 | 40.95688 | -1.66847 | 38947 ft | 419 kts | 217° |
| 2026-05-04 14:18 | 40.88457 | -1.73332 | 38951 ft | 418 kts | 217° |
| 2026-05-04 14:19 | 40.78849 | -1.81921 | 38954 ft | 416 kts | 217° |
| 2026-05-04 14:19 | 40.74051 | -1.86201 | 38959 ft | 417 kts | 217° |
| 2026-05-04 14:20 | 40.69245 | -1.90474 | 38960 ft | 416 kts | 217° |
| 2026-05-04 14:20 | 40.64432 | -1.94744 | 38971 ft | 418 kts | 217° |
| 2026-05-04 14:21 | 40.57188 | -2.01161 | 38971 ft | 418 kts | 217° |
| 2026-05-04 14:21 | 40.52361 | -2.05427 | 38961 ft | 418 kts | 217° |
| 2026-05-04 14:22 | 40.47559 | -2.09659 | 38961 ft | 418 kts | 217° |
| 2026-05-04 14:22 | 40.42728 | -2.13915 | 38971 ft | 418 kts | 217° |
| 2026-05-04 14:23 | 40.35487 | -2.20282 | 38971 ft | 418 kts | 217° |
| 2026-05-04 14:24 | 40.30659 | -2.24515 | 38968 ft | 417 kts | 217° |
| 2026-05-04 14:24 | 40.25833 | -2.28741 | 38960 ft | 417 kts | 217° |
| 2026-05-04 14:25 | 40.20995 | -2.32972 | 38961 ft | 419 kts | 218° |
| 2026-05-04 14:25 | 40.13730 | -2.39307 | 38971 ft | 418 kts | 218° |
| 2026-05-04 14:26 | 40.08892 | -2.43517 | 38970 ft | 418 kts | 217° |
| 2026-05-04 14:26 | 40.04052 | -2.47722 | 38966 ft | 418 kts | 218° |
| 2026-05-04 14:27 | 39.99209 | -2.51923 | 38962 ft | 418 kts | 218° |
| 2026-05-04 14:27 | 39.94366 | -2.56115 | 38971 ft | 417 kts | 218° |
| 2026-05-04 14:28 | 39.89529 | -2.60294 | 38971 ft | 417 kts | 218° |
| 2026-05-04 14:28 | 39.84691 | -2.64467 | 38971 ft | 417 kts | 218° |
| 2026-05-04 14:29 | 39.74994 | -2.72812 | 38966 ft | 418 kts | 218° |
| 2026-05-04 14:30 | 39.70142 | -2.76976 | 38959 ft | 418 kts | 218° |
| 2026-05-04 14:31 | 39.63689 | -2.82505 | 38964 ft | 418 kts | 218° |
| 2026-05-04 14:32 | 39.53983 | -2.90800 | 38935 ft | 418 kts | 218° |
| 2026-05-04 14:32 | 39.49130 | -2.94936 | 38951 ft | 417 kts | 218° |
| 2026-05-04 14:33 | 39.44282 | -2.99060 | 38968 ft | 417 kts | 217° |
| 2026-05-04 14:33 | 39.39280 | -3.02912 | 38955 ft | 422 kts | 209° |
| 2026-05-04 14:34 | 39.33828 | -3.05804 | 38963 ft | 425 kts | 206° |
| 2026-05-04 14:34 | 39.28285 | -3.08496 | 38955 ft | 426 kts | 206° |
| 2026-05-04 14:35 | 39.22734 | -3.11153 | 38954 ft | 425 kts | 206° |
| 2026-05-04 14:35 | 39.17196 | -3.13821 | 38958 ft | 425 kts | 206° |
| 2026-05-04 14:36 | 39.11698 | -3.16481 | 38954 ft | 425 kts | 206° |
| 2026-05-04 14:36 | 39.06164 | -3.19158 | 38950 ft | 425 kts | 206° |
| 2026-05-04 14:37 | 39.00643 | -3.21823 | 38955 ft | 423 kts | 206° |
| 2026-05-04 14:37 | 38.95132 | -3.24479 | 38959 ft | 423 kts | 206° |
| 2026-05-04 14:38 | 38.89620 | -3.27129 | 38961 ft | 423 kts | 206° |
| 2026-05-04 14:38 | 38.86864 | -3.28453 | 38832 ft | 423 kts | 206° |
| 2026-05-04 14:38 | 38.84138 | -3.29833 | 38712 ft | 419 kts | 210° |
| 2026-05-04 14:39 | 38.79163 | -3.33520 | 38470 ft | 410 kts | 218° |
| 2026-05-04 14:39 | 38.76798 | -3.35552 | 38129 ft | 409 kts | 219° |
| 2026-05-04 14:39 | 38.74444 | -3.37598 | 37677 ft | 409 kts | 219° |
| 2026-05-04 14:40 | 38.69750 | -3.41685 | 37148 ft | 408 kts | 219° |
| 2026-05-04 14:40 | 38.67405 | -3.43727 | 36897 ft | 408 kts | 219° |
| 2026-05-04 14:40 | 38.65056 | -3.45771 | 36649 ft | 408 kts | 219° |
| 2026-05-04 14:40 | 38.62704 | -3.47817 | 36386 ft | 409 kts | 219° |
| 2026-05-04 14:41 | 38.60354 | -3.49860 | 36117 ft | 409 kts | 219° |
| 2026-05-04 14:41 | 38.58002 | -3.51902 | 35861 ft | 408 kts | 219° |
| 2026-05-04 14:41 | 38.53319 | -3.55964 | 35373 ft | 406 kts | 219° |
| 2026-05-04 14:42 | 38.48646 | -3.60012 | 34893 ft | 406 kts | 219° |
| 2026-05-04 14:42 | 38.46308 | -3.62033 | 34645 ft | 406 kts | 219° |
| 2026-05-04 14:42 | 38.43971 | -3.64054 | 34408 ft | 406 kts | 219° |
| 2026-05-04 14:43 | 38.41636 | -3.66072 | 33984 ft | 406 kts | 219° |
| 2026-05-04 14:43 | 38.39297 | -3.68089 | 33391 ft | 406 kts | 219° |
| 2026-05-04 14:43 | 38.36958 | -3.70106 | 32809 ft | 406 kts | 219° |
| 2026-05-04 14:43 | 38.34613 | -3.72127 | 32224 ft | 408 kts | 218° |
| 2026-05-04 14:44 | 38.32257 | -3.74155 | 31683 ft | 410 kts | 219° |
| 2026-05-04 14:44 | 38.29891 | -3.76190 | 31040 ft | 411 kts | 218° |
| 2026-05-04 14:44 | 38.27522 | -3.78226 | 30347 ft | 411 kts | 218° |
| 2026-05-04 14:44 | 38.25151 | -3.80262 | 29659 ft | 410 kts | 218° |
| 2026-05-04 14:45 | 38.22792 | -3.82284 | 28990 ft | 408 kts | 219° |
| 2026-05-04 14:45 | 38.20445 | -3.84295 | 28335 ft | 405 kts | 218° |
| 2026-05-04 14:45 | 38.18117 | -3.86288 | 27698 ft | 403 kts | 218° |
| 2026-05-04 14:45 | 38.15796 | -3.88275 | 27075 ft | 401 kts | 218° |
| 2026-05-04 14:46 | 38.13521 | -3.90221 | 26472 ft | 399 kts | 218° |
| 2026-05-04 14:46 | 38.11226 | -3.92182 | 25847 ft | 396 kts | 218° |
| 2026-05-04 14:46 | 38.08946 | -3.94130 | 25261 ft | 394 kts | 218° |
| 2026-05-04 14:46 | 38.06666 | -3.96046 | 24677 ft | 393 kts | 216° |
| 2026-05-04 14:47 | 38.04246 | -3.97642 | 24289 ft | 391 kts | 208° |
| 2026-05-04 14:47 | 38.01674 | -3.98728 | 23995 ft | 388 kts | 201° |
| 2026-05-04 14:47 | 37.99069 | -3.99528 | 23831 ft | 384 kts | 199° |
| 2026-05-04 14:47 | 37.96461 | -4.00274 | 23685 ft | 385 kts | 199° |
| 2026-05-04 14:48 | 37.93841 | -4.01009 | 23551 ft | 385 kts | 199° |
| 2026-05-04 14:48 | 37.91224 | -4.01736 | 23380 ft | 385 kts | 199° |
| 2026-05-04 14:48 | 37.88607 | -4.02458 | 23227 ft | 385 kts | 199° |
| 2026-05-04 14:48 | 37.85998 | -4.03176 | 23023 ft | 383 kts | 199° |
| 2026-05-04 14:49 | 37.83397 | -4.03890 | 22861 ft | 382 kts | 199° |
| 2026-05-04 14:49 | 37.80805 | -4.04601 | 22709 ft | 381 kts | 199° |
| 2026-05-04 14:49 | 37.78220 | -4.05310 | 22544 ft | 380 kts | 199° |
| 2026-05-04 14:49 | 37.75639 | -4.06017 | 22365 ft | 379 kts | 199° |
| 2026-05-04 14:50 | 37.73061 | -4.06721 | 22159 ft | 378 kts | 199° |
| 2026-05-04 14:50 | 37.70496 | -4.07423 | 22023 ft | 377 kts | 199° |
| 2026-05-04 14:50 | 37.67931 | -4.08125 | 21890 ft | 376 kts | 199° |
| 2026-05-04 14:50 | 37.65375 | -4.08823 | 21760 ft | 376 kts | 199° |
| 2026-05-04 14:51 | 37.62823 | -4.09521 | 21615 ft | 375 kts | 198° |
| 2026-05-04 14:51 | 37.60272 | -4.10216 | 21477 ft | 374 kts | 198° |
| 2026-05-04 14:51 | 37.57731 | -4.10909 | 21351 ft | 374 kts | 198° |
| 2026-05-04 14:51 | 37.55192 | -4.11601 | 21223 ft | 373 kts | 198° |
| 2026-05-04 14:52 | 37.52658 | -4.12290 | 21093 ft | 372 kts | 198° |
| 2026-05-04 14:52 | 37.50125 | -4.12978 | 20743 ft | 373 kts | 198° |
| 2026-05-04 14:52 | 37.47595 | -4.13664 | 20315 ft | 371 kts | 198° |
| 2026-05-04 14:52 | 37.45084 | -4.14348 | 19869 ft | 368 kts | 198° |
| 2026-05-04 14:53 | 37.42589 | -4.15025 | 19429 ft | 366 kts | 198° |
| 2026-05-04 14:53 | 37.40105 | -4.15697 | 18980 ft | 364 kts | 198° |
| 2026-05-04 14:53 | 37.37630 | -4.16368 | 18555 ft | 363 kts | 198° |
| 2026-05-04 14:53 | 37.35169 | -4.17035 | 18118 ft | 362 kts | 198° |
| 2026-05-04 14:54 | 37.32715 | -4.17699 | 17630 ft | 360 kts | 198° |
| 2026-05-04 14:54 | 37.30274 | -4.18360 | 17167 ft | 358 kts | 198° |
| 2026-05-04 14:54 | 37.27847 | -4.19015 | 16710 ft | 356 kts | 198° |
| 2026-05-04 14:54 | 37.25434 | -4.19667 | 16249 ft | 354 kts | 198° |
| 2026-05-04 14:55 | 37.23034 | -4.20315 | 15788 ft | 352 kts | 197° |
| 2026-05-04 14:55 | 37.20644 | -4.20962 | 15287 ft | 350 kts | 197° |
| 2026-05-04 14:55 | 37.18265 | -4.21604 | 14796 ft | 348 kts | 197° |
| 2026-05-04 14:55 | 37.15932 | -4.22232 | 14302 ft | 347 kts | 197° |
| 2026-05-04 14:56 | 37.13581 | -4.22864 | 13822 ft | 345 kts | 197° |
| 2026-05-04 14:56 | 37.11240 | -4.23493 | 13317 ft | 343 kts | 197° |
| 2026-05-04 14:56 | 37.08913 | -4.24118 | 12802 ft | 341 kts | 197° |
| 2026-05-04 14:56 | 37.06598 | -4.24743 | 12290 ft | 339 kts | 197° |
| 2026-05-04 14:57 | 37.04304 | -4.25356 | 11818 ft | 338 kts | 197° |
| 2026-05-04 14:57 | 37.02012 | -4.25969 | 11445 ft | 337 kts | 197° |
| 2026-05-04 14:57 | 36.99724 | -4.26584 | 11086 ft | 335 kts | 197° |
| 2026-05-04 14:57 | 36.97458 | -4.27192 | 10712 ft | 333 kts | 196° |
| 2026-05-04 14:58 | 36.95196 | -4.27798 | 10345 ft | 332 kts | 196° |
| 2026-05-04 14:58 | 36.92938 | -4.28402 | 9986 ft | 331 kts | 197° |
| 2026-05-04 14:58 | 36.90705 | -4.29000 | 9625 ft | 325 kts | 197° |
| 2026-05-04 14:58 | 36.88531 | -4.29578 | 9303 ft | 315 kts | 197° |
| 2026-05-04 14:59 | 36.86423 | -4.30138 | 9039 ft | 305 kts | 197° |
| 2026-05-04 14:59 | 36.84382 | -4.30680 | 8870 ft | 294 kts | 196° |
| 2026-05-04 14:59 | 36.80511 | -4.31712 | 8484 ft | 274 kts | 196° |
| 2026-05-04 15:00 | 36.78676 | -4.32193 | 8303 ft | 265 kts | 198° |
| 2026-05-04 15:00 | 36.76895 | -4.32671 | 8143 ft | 260 kts | 197° |
| 2026-05-04 15:00 | 36.75143 | -4.33132 | 8025 ft | 255 kts | 195° |
| 2026-05-04 15:01 | 36.71689 | -4.32461 | 7536 ft | 258 kts | 160° |
| 2026-05-04 15:01 | 36.70073 | -4.31476 | 7047 ft | 259 kts | 156° |
| 2026-05-04 15:01 | 36.68471 | -4.30458 | 6594 ft | 257 kts | 155° |
| 2026-05-04 15:01 | 36.66874 | -4.29448 | 6050 ft | 259 kts | 156° |
| 2026-05-04 15:02 | 36.65265 | -4.28401 | 5469 ft | 262 kts | 155° |
| 2026-05-04 15:02 | 36.63647 | -4.27369 | 4982 ft | 261 kts | 155° |
| 2026-05-04 15:02 | 36.62044 | -4.26372 | 4617 ft | 252 kts | 155° |
| 2026-05-04 15:02 | 36.60505 | -4.25419 | 4305 ft | 243 kts | 155° |
| 2026-05-04 15:03 | 36.58988 | -4.24662 | 4033 ft | 228 kts | 176° |
| 2026-05-04 15:03 | 36.57526 | -4.24867 | 3796 ft | 207 kts | 209° |
| 2026-05-04 15:03 | 36.56316 | -4.25752 | 3655 ft | 202 kts | 218° |
| 2026-05-04 15:03 | 36.55186 | -4.26811 | 3548 ft | 204 kts | 226° |
| 2026-05-04 15:04 | 36.54470 | -4.28254 | 3477 ft | 193 kts | 260° |
| 2026-05-04 15:04 | 36.54501 | -4.29886 | 3400 ft | 191 kts | 282° |
| 2026-05-04 15:04 | 36.54814 | -4.31491 | 3295 ft | 190 kts | 287° |
| 2026-05-04 15:04 | 36.55422 | -4.32944 | 3174 ft | 191 kts | 306° |
| 2026-05-04 15:05 | 36.56268 | -4.34180 | 3090 ft | 185 kts | 309° |
| 2026-05-04 15:05 | 36.57104 | -4.35355 | 2831 ft | 179 kts | 308° |
| 2026-05-04 15:05 | 36.57916 | -4.36499 | 2565 ft | 175 kts | 309° |
| 2026-05-04 15:05 | 36.58713 | -4.37615 | 2337 ft | 170 kts | 309° |
| 2026-05-04 15:06 | 36.59487 | -4.38698 | 2115 ft | 165 kts | 306° |
| 2026-05-04 15:06 | 36.60236 | -4.39745 | 1877 ft | 160 kts | 304° |
| 2026-05-04 15:06 | 36.60953 | -4.40750 | 1680 ft | 150 kts | 304° |
| 2026-05-04 15:07 | 36.62254 | -4.42570 | 1325 ft | 132 kts | 301° |
| 2026-05-04 15:07 | 36.62880 | -4.43454 | 1132 ft | 139 kts | 301° |
| 2026-05-04 15:07 | 36.63530 | -4.44362 | 940 ft | 141 kts | 302° |
| 2026-05-04 15:07 | 36.64183 | -4.45277 | 761 ft | 142 kts | 303° |
| 2026-05-04 15:08 | 36.64838 | -4.46196 | 576 ft | 142 kts | 308° |
| 2026-05-04 15:08 | 36.65491 | -4.47110 | 392 ft | 142 kts | 305° |
| 2026-05-04 15:08 | 36.66163 | -4.48054 | 208 ft | 148 kts | 309° |
| 2026-05-04 15:08 | 36.66842 | -4.48996 | 46 ft | 139 kts | 316° |
| 2026-05-04 15:09 | 36.67366 | -4.49735 | 47 ft | 81 kts | 312° |
| 2026-05-04 15:09 | 36.67629 | -4.50093 | 51 ft | 27 kts | 319° |
| 2026-05-04 15:09 | 36.67750 | -4.50180 | 55 ft | 9 kts | 326° |
| 2026-05-04 15:10 | 36.67878 | -4.50205 | 48 ft | 10 kts | 49° |
| 2026-05-04 15:10 | 36.67869 | -4.50150 | 49 ft | 10 kts | 120° |
| 2026-05-04 15:10 | 36.67721 | -4.49938 | 47 ft | 19 kts | 132° |
| 2026-05-04 15:11 | 36.67639 | -4.49823 | 47 ft | 15 kts | 131° |
| 2026-05-04 15:11 | 36.67578 | -4.49736 | 47 ft | 9 kts | 131° |
| 2026-05-04 15:11 | 36.67560 | -4.49685 | 47 ft | 7 kts | 85° |
| 2026-05-04 15:11 | 36.67581 | -4.49628 | 46 ft | 7 kts | 83° |
| 2026-05-04 15:12 | 36.67559 | -4.49569 | 46 ft | 9 kts | 124° |
| 2026-05-04 15:12 | 36.67552 | -4.49514 | 46 ft | 5 kts | 65° |
| 2026-05-04 15:12 | 36.67580 | -4.49478 | 46 ft | 7 kts | 42° |
| 2026-05-04 15:12 | 36.67614 | -4.49441 | 46 ft | 3 kts | 41° |
| 2026-05-04 15:13 | 36.67624 | -4.49430 | 46 ft | 1 kts | 41° |
| 2026-05-04 15:13 | 36.67626 | -4.49428 | 46 ft | 0 kts | 41° |